Time;durP1;ratioP1;P1;durP2;ratioP2;P2;SDS_P1;SDS_P2;PMS_P1;PMS_P2;Temp;Humidity;BMP_temperature;BMP_pressure;BME280_temperature;BME280_humidity;BME280_pressure;Samples;Min_cycle;Max_cycle;Signal;HPM_P1;HPM_P2
2022/06/29 00:00:13;;;;;;;7.40;6.40;;;18.90;99.90;;;;;;4992927;28;20484;-67
2022/06/29 00:02:40;;;;;;;8.30;6.77;;;19.00;99.90;;;;;;4992878;28;20454;-67
2022/06/29 00:05:08;;;;;;;8.70;7.27;;;19.00;99.90;;;;;;4992500;28;20491;-67
2022/06/29 00:07:35;;;;;;;6.77;5.50;;;19.00;99.90;;;;;;4993655;28;20432;-67
2022/06/29 00:10:03;;;;;;;7.70;6.53;;;18.90;99.90;;;;;;4996706;28;20467;-67
2022/06/29 00:12:30;;;;;;;7.57;6.37;;;18.90;99.90;;;;;;4996405;28;20479;-67
2022/06/29 00:14:57;;;;;;;10.73;6.10;;;18.90;99.90;;;;;;4996502;28;20482;-68
2022/06/29 00:17:26;;;;;;;7.30;5.80;;;18.90;99.90;;;;;;4996008;28;20456;-68
2022/06/29 00:19:53;;;;;;;10.00;6.10;;;18.90;99.90;;;;;;4996799;28;20439;-67
2022/06/29 00:22:21;;;;;;;9.53;7.07;;;18.90;99.90;;;;;;4996300;28;20439;-67
2022/06/29 00:24:48;;;;;;;8.53;6.70;;;18.90;99.90;;;;;;4996609;28;20952;-67
2022/06/29 00:27:15;;;;;;;10.30;6.03;;;18.80;99.90;;;;;;4996461;28;20886;-67
2022/06/29 00:29:43;;;;;;;9.90;6.17;;;18.80;99.90;;;;;;4995727;28;20478;-67
2022/06/29 00:32:10;;;;;;;7.17;5.70;;;18.80;99.90;;;;;;4996312;28;20482;-68
2022/06/29 00:34:39;;;;;;;10.03;6.50;;;18.80;99.90;;;;;;4995826;28;20435;-68
2022/06/29 00:37:06;;;;;;;8.43;7.50;;;18.80;99.90;;;;;;4996207;28;20490;-67
2022/06/29 00:39:33;;;;;;;9.00;6.90;;;18.80;99.90;;;;;;4995700;28;20517;-67
2022/06/29 00:42:01;;;;;;;9.17;8.20;;;18.80;99.90;;;;;;4995899;28;20494;-68
2022/06/29 00:44:29;;;;;;;13.57;9.07;;;18.70;99.90;;;;;;4996188;28;20505;-67
2022/06/29 00:46:57;;;;;;;7.93;7.07;;;18.70;99.90;;;;;;4995910;28;20443;-68
2022/06/29 00:49:27;;;;;;;11.17;6.80;;;18.70;99.90;;;;;;4996237;28;20478;-67
2022/06/29 00:52:03;;;;;;;8.43;7.13;;;18.70;99.90;;;;;;4995455;28;20472;-67
2022/06/29 00:54:35;;;;;;;8.33;7.40;;;18.70;99.90;;;;;;4996128;28;20521;-67
2022/06/29 00:57:06;;;;;;;8.90;8.00;;;18.70;99.90;;;;;;4995429;28;20435;-67
2022/06/29 00:59:40;;;;;;;8.50;6.87;;;18.60;99.90;;;;;;4995986;28;20444;-67
2022/06/29 01:02:08;;;;;;;10.13;6.90;;;18.50;99.90;;;;;;4995197;28;21007;-69
2022/06/29 01:04:35;;;;;;;8.30;6.83;;;18.50;99.90;;;;;;4995719;28;20439;-67
2022/06/29 01:07:04;;;;;;;7.80;6.80;;;18.60;99.90;;;;;;4995431;28;20443;-67
2022/06/29 01:09:31;;;;;;;9.57;7.70;;;18.60;99.90;;;;;;4995651;28;20479;-68
2022/06/29 01:11:59;;;;;;;8.00;7.20;;;18.60;99.90;;;;;;4995238;28;20475;-68
2022/06/29 01:14:26;;;;;;;7.07;6.37;;;18.50;99.90;;;;;;4995717;28;20513;-67
2022/06/29 01:16:54;;;;;;;8.93;6.03;;;18.50;99.90;;;;;;4994844;28;20952;-67
2022/06/29 01:19:21;;;;;;;8.13;6.33;;;18.50;99.90;;;;;;4994307;28;20777;-67
2022/06/29 01:21:51;;;;;;;9.03;7.00;;;18.50;99.90;;;;;;4995034;28;20467;-67
2022/06/29 01:24:20;;;;;;;7.10;6.50;;;18.40;99.90;;;;;;4995470;28;20530;-67
2022/06/29 01:26:47;;;;;;;8.97;6.60;;;18.40;99.90;;;;;;4994346;28;21016;-67
2022/06/29 01:29:15;;;;;;;7.60;6.83;;;18.50;99.90;;;;;;4995423;28;20469;-67
2022/06/29 01:31:42;;;;;;;6.80;6.10;;;18.50;99.90;;;;;;4994535;28;20482;-67
2022/06/29 01:34:09;;;;;;;8.87;6.70;;;18.60;99.90;;;;;;4995362;28;20444;-67
2022/06/29 01:36:37;;;;;;;9.13;5.53;;;18.60;99.90;;;;;;4994353;28;20436;-67
2022/06/29 01:39:04;;;;;;;6.53;5.80;;;18.60;99.90;;;;;;4995328;28;20502;-67
2022/06/29 01:41:33;;;;;;;10.10;6.07;;;18.60;99.90;;;;;;4994740;28;20452;-68
2022/06/29 01:44:00;;;;;;;9.23;6.20;;;18.60;99.90;;;;;;4995177;28;20890;-67
2022/06/29 01:46:27;;;;;;;10.23;6.20;;;18.60;99.90;;;;;;4994214;28;20472;-68
2022/06/29 01:48:54;;;;;;;9.60;7.37;;;18.60;99.90;;;;;;4994995;28;20919;-68
2022/06/29 01:51:21;;;;;;;7.70;6.50;;;18.60;99.90;;;;;;4994372;28;20478;-68
2022/06/29 01:53:48;;;;;;;7.47;6.40;;;18.60;99.90;;;;;;4994572;28;20479;-67
2022/06/29 01:56:15;;;;;;;10.80;6.20;;;18.60;99.90;;;;;;4994784;28;20934;-67
2022/06/29 01:58:45;;;;;;;7.53;6.60;;;18.50;99.90;;;;;;4994472;28;20506;-67
2022/06/29 02:01:12;;;;;;;6.87;6.07;;;18.50;99.90;;;;;;4994555;28;21048;-68
2022/06/29 02:03:39;;;;;;;7.50;5.10;;;18.50;99.90;;;;;;4994102;28;20463;-67
2022/06/29 02:06:06;;;;;;;7.10;6.33;;;18.50;99.90;;;;;;4994702;28;20447;-67
2022/06/29 02:08:34;;;;;;;7.20;6.50;;;18.50;99.90;;;;;;4994290;28;20431;-67
2022/06/29 02:11:02;;;;;;;12.13;6.43;;;18.40;99.90;;;;;;4994617;28;20444;-68
2022/06/29 02:13:29;;;;;;;10.30;7.47;;;18.40;99.90;;;;;;4994045;28;20859;-67
2022/06/29 02:15:58;;;;;;;9.47;6.90;;;18.40;99.90;;;;;;4994483;28;21158;-68
2022/06/29 02:18:25;;;;;;;8.60;7.70;;;18.50;99.90;;;;;;4994458;28;20457;-67
2022/06/29 02:20:52;;;;;;;9.03;6.27;;;18.40;99.90;;;;;;4994654;28;21048;-67
2022/06/29 02:23:20;;;;;;;8.40;6.10;;;18.50;99.90;;;;;;4994493;28;20436;-68
2022/06/29 02:25:47;;;;;;;14.17;6.17;;;18.50;99.90;;;;;;4975015;28;20448;-68
2022/06/29 02:28:14;;;;;;;9.80;6.20;;;18.50;99.90;;;;;;4976910;28;20491;-68
2022/06/29 02:36:12;;;;;;;8.13;6.10;;;18.40;99.90;;;;;;4994234;28;20489;-67
2022/06/29 02:38:39;;;;;;;6.47;5.87;;;18.40;99.90;;;;;;4993645;28;20432;-67
2022/06/29 02:41:07;;;;;;;7.77;5.87;;;18.40;99.90;;;;;;4994020;28;20479;-67
2022/06/29 02:43:34;;;;;;;6.83;5.10;;;18.40;99.90;;;;;;4993643;28;20439;-68
2022/06/29 02:46:01;;;;;;;8.70;6.20;;;18.20;99.90;;;;;;4993890;28;20444;-67
2022/06/29 02:48:29;;;;;;;6.47;4.73;;;18.20;99.90;;;;;;4993571;28;20471;-68
2022/06/29 02:50:56;;;;;;;6.70;5.40;;;18.20;99.90;;;;;;4993539;28;20448;-67
2022/06/29 02:53:24;;;;;;;7.00;4.93;;;18.10;99.90;;;;;;4993466;28;20566;-67
2022/06/29 02:55:50;;;;;;;10.40;6.17;;;18.10;99.90;;;;;;4994058;28;20515;-67
2022/06/29 02:58:18;;;;;;;8.30;5.43;;;18.10;99.90;;;;;;4992960;28;20475;-67
2022/06/29 03:00:45;;;;;;;6.20;5.03;;;18.00;99.90;;;;;;4993666;28;20440;-67
2022/06/29 03:03:12;;;;;;;8.00;5.73;;;17.90;99.90;;;;;;4993267;28;20443;-67
2022/06/29 03:05:41;;;;;;;6.13;4.37;;;18.00;99.90;;;;;;4993433;28;20443;-67
2022/06/29 03:08:08;;;;;;;5.37;4.57;;;18.00;99.90;;;;;;4993401;28;20559;-67
2022/06/29 03:10:35;;;;;;;8.30;4.47;;;18.00;99.90;;;;;;4993608;28;20436;-67
2022/06/29 03:13:02;;;;;;;5.53;4.37;;;18.10;99.90;;;;;;4993071;28;20534;-68
2022/06/29 03:15:29;;;;;;;13.00;5.40;;;18.10;99.90;;;;;;4993469;28;20474;-68
2022/06/29 03:17:56;;;;;;;7.27;4.50;;;18.20;99.90;;;;;;4993046;28;20454;-67
2022/06/29 03:20:24;;;;;;;7.33;4.50;;;18.20;99.90;;;;;;4993681;28;20449;-67
2022/06/29 03:22:55;;;;;;;10.00;5.00;;;18.20;99.90;;;;;;4993078;28;20439;-67
2022/06/29 03:25:22;;;;;;;10.40;5.63;;;18.20;99.90;;;;;;4993518;28;20439;-68
2022/06/29 03:27:49;;;;;;;4.90;4.40;;;18.20;99.90;;;;;;4993365;28;20571;-68
2022/06/29 03:30:16;;;;;;;7.93;5.10;;;18.20;99.90;;;;;;4993030;28;20467;-68
2022/06/29 03:32:43;;;;;;;5.70;4.80;;;18.20;99.90;;;;;;4992186;28;20479;-68
2022/06/29 03:35:10;;;;;;;8.87;5.03;;;18.30;99.90;;;;;;4993216;28;20502;-68
2022/06/29 03:37:37;;;;;;;5.63;5.10;;;18.30;99.90;;;;;;4992775;28;20440;-67
2022/06/29 03:40:07;;;;;;;5.87;4.63;;;18.30;99.90;;;;;;4993039;28;20444;-67
2022/06/29 03:42:34;;;;;;;6.63;4.07;;;18.40;99.90;;;;;;4992086;28;20471;-68
2022/06/29 03:45:01;;;;;;;6.03;4.63;;;18.40;99.90;;;;;;4992769;28;20943;-69
2022/06/29 03:47:29;;;;;;;8.43;5.17;;;18.40;99.90;;;;;;4993167;28;20812;-69
2022/06/29 03:49:56;;;;;;;8.77;4.73;;;18.40;99.90;;;;;;4992654;28;20439;-69
2022/06/29 03:52:23;;;;;;;11.47;4.90;;;18.40;99.90;;;;;;4993005;28;20538;-67
2022/06/29 03:54:50;;;;;;;9.27;4.93;;;18.40;99.90;;;;;;4992373;28;20448;-68
2022/06/29 03:57:19;;;;;;;9.80;4.83;;;18.40;99.90;;;;;;4992805;28;20952;-67
2022/06/29 03:59:46;;;;;;;6.20;4.77;;;18.50;99.90;;;;;;4992816;28;20498;-67
2022/06/29 04:02:13;;;;;;;7.00;4.50;;;18.50;99.90;;;;;;4992622;28;20444;-67
2022/06/29 04:04:39;;;;;;;9.80;5.83;;;18.50;99.90;;;;;;4993381;28;20443;-67
2022/06/29 04:07:07;;;;;;;7.97;5.13;;;18.50;99.90;;;;;;4993134;28;20436;-67
2022/06/29 04:09:34;;;;;;;7.67;5.03;;;18.50;99.90;;;;;;4993159;28;20435;-67
2022/06/29 04:12:01;;;;;;;7.10;5.10;;;18.60;99.90;;;;;;4992981;28;20531;-67
2022/06/29 04:14:30;;;;;;;10.80;6.50;;;18.60;99.90;;;;;;4992579;28;20499;-67
2022/06/29 04:16:58;;;;;;;6.50;5.53;;;18.60;99.90;;;;;;4992473;28;20468;-68
2022/06/29 04:19:26;;;;;;;8.20;5.17;;;18.60;99.90;;;;;;4993041;28;20443;-68
2022/06/29 04:21:54;;;;;;;6.07;5.20;;;18.60;99.90;;;;;;4993055;28;20985;-67
2022/06/29 04:24:23;;;;;;;7.07;6.27;;;18.60;99.90;;;;;;4993097;28;20498;-68
2022/06/29 04:26:50;;;;;;;6.30;5.30;;;18.60;99.90;;;;;;4992921;28;20863;-67
2022/06/29 04:29:17;;;;;;;11.53;5.63;;;18.60;99.90;;;;;;4992707;28;20479;-68
2022/06/29 04:31:46;;;;;;;7.47;5.50;;;18.60;99.90;;;;;;4992725;28;20440;-67
2022/06/29 04:34:13;;;;;;;6.83;5.00;;;18.70;99.90;;;;;;4992872;28;20483;-68
2022/06/29 04:36:40;;;;;;;8.07;6.50;;;18.70;99.90;;;;;;4992280;28;20468;-68
2022/06/29 04:39:07;;;;;;;7.07;5.00;;;18.70;99.90;;;;;;4992899;28;20473;-68
2022/06/29 04:41:35;;;;;;;7.60;6.07;;;18.80;99.90;;;;;;4992655;28;20446;-67
2022/06/29 04:44:02;;;;;;;8.10;6.20;;;18.90;99.90;;;;;;4992485;28;20827;-68
2022/06/29 04:46:29;;;;;;;7.07;6.37;;;18.90;99.90;;;;;;4992717;28;20444;-69
2022/06/29 04:48:59;;;;;;;10.90;5.53;;;18.90;99.90;;;;;;4992649;28;20533;-68
2022/06/29 04:51:28;;;;;;;9.87;6.70;;;18.90;99.90;;;;;;4992887;28;20474;-67
2022/06/29 04:53:56;;;;;;;8.57;6.37;;;19.00;99.90;;;;;;4994405;28;20836;-68
2022/06/29 04:56:25;;;;;;;7.73;5.43;;;19.00;99.90;;;;;;4996586;28;20439;-67
2022/06/29 04:58:53;;;;;;;6.53;5.83;;;19.10;99.90;;;;;;4996291;28;20937;-72
2022/06/29 05:01:21;;;;;;;8.40;5.77;;;19.10;99.90;;;;;;4996234;28;20432;-67
2022/06/29 05:03:48;;;;;;;7.60;5.20;;;19.20;99.90;;;;;;4996400;28;20813;-67
2022/06/29 05:06:17;;;;;;;6.57;5.13;;;19.20;99.90;;;;;;4995606;28;20443;-67
2022/06/29 05:08:44;;;;;;;9.87;6.07;;;19.30;99.90;;;;;;4996164;28;20454;-67
2022/06/29 05:11:13;;;;;;;6.90;5.30;;;19.30;99.90;;;;;;4995740;28;20483;-67
2022/06/29 05:13:41;;;;;;;4.70;4.30;;;19.40;99.90;;;;;;4995975;28;20487;-68
2022/06/29 05:16:08;;;;;;;5.07;4.47;;;19.40;99.90;;;;;;4995441;28;20522;-68
2022/06/29 05:18:37;;;;;;;6.37;4.57;;;19.40;99.90;;;;;;4996044;28;20484;-68
2022/06/29 05:21:04;;;;;;;8.10;4.63;;;19.40;99.90;;;;;;4995184;28;20845;-68
2022/06/29 05:23:34;;;;;;;4.73;3.80;;;19.30;99.90;;;;;;4995923;28;20487;-68
2022/06/29 05:26:01;;;;;;;7.03;4.27;;;19.30;99.90;;;;;;4992187;28;20964;-68
2022/06/29 05:28:28;;;;;;;5.90;4.50;;;19.30;99.90;;;;;;4993468;28;20450;-68
2022/06/29 05:30:55;;;;;;;7.07;5.00;;;19.30;99.90;;;;;;4993823;28;20828;-67
2022/06/29 05:33:22;;;;;;;7.53;4.83;;;19.20;99.90;;;;;;4993789;28;20538;-68
2022/06/29 05:35:49;;;;;;;11.63;4.47;;;19.20;99.90;;;;;;4990952;28;20857;-68
2022/06/29 05:38:16;;;;;;;6.17;4.33;;;19.20;99.90;;;;;;4989991;28;20499;-68
2022/06/29 05:40:45;;;;;;;6.63;4.73;;;19.30;99.90;;;;;;4987040;28;20443;-73
2022/06/29 05:43:12;;;;;;;6.80;4.43;;;19.40;99.90;;;;;;4990219;28;20480;-67
2022/06/29 05:45:39;;;;;;;5.97;4.43;;;19.40;99.90;;;;;;4989993;28;20459;-68
2022/06/29 05:48:07;;;;;;;10.67;4.37;;;19.50;99.90;;;;;;4991923;28;20443;-68
2022/06/29 05:50:33;;;;;;;8.50;4.40;;;19.50;99.90;;;;;;4994767;28;20440;-68
2022/06/29 05:53:00;;;;;;;6.70;3.97;;;19.50;99.90;;;;;;4991681;28;20522;-68
2022/06/29 05:55:27;;;;;;;4.83;4.17;;;19.50;99.90;;;;;;4992133;28;21037;-69
2022/06/29 05:57:56;;;;;;;13.13;4.27;;;19.60;99.90;;;;;;4991174;28;20436;-68
2022/06/29 06:00:23;;;;;;;5.07;3.53;;;19.50;99.90;;;;;;4993477;28;20440;-68
2022/06/29 06:02:50;;;;;;;4.70;2.93;;;19.60;99.90;;;;;;4993270;28;20470;-67
2022/06/29 06:05:17;;;;;;;7.97;4.13;;;19.60;99.90;;;;;;4992577;28;20443;-70
2022/06/29 06:07:44;;;;;;;7.50;4.00;;;19.60;99.90;;;;;;4989148;28;20431;-68
2022/06/29 06:10:11;;;;;;;9.63;4.13;;;19.60;99.90;;;;;;4993308;28;20455;-67
2022/06/29 06:12:38;;;;;;;16.43;3.73;;;19.60;99.90;;;;;;4992801;28;20896;-68
2022/06/29 06:15:08;;;;;;;9.77;3.90;;;19.80;99.90;;;;;;4991702;28;21083;-70
2022/06/29 06:17:35;;;;;;;6.40;3.60;;;19.90;99.90;;;;;;4988938;28;20442;-68
2022/06/29 06:20:04;;;;;;;6.27;3.57;;;20.00;99.90;;;;;;4992559;28;20487;-68
2022/06/29 06:22:32;;;;;;;6.50;3.73;;;20.10;99.90;;;;;;4992565;28;20436;-69
2022/06/29 06:24:59;;;;;;;11.73;4.17;;;20.30;99.90;;;;;;4992234;28;20526;-68
2022/06/29 06:27:26;;;;;;;36.70;6.00;;;20.40;99.90;;;;;;4992745;28;20440;-70
2022/06/29 06:29:53;;;;;;;8.50;4.50;;;20.50;99.90;;;;;;4992674;28;20467;-68
2022/06/29 06:32:21;;;;;;;5.60;3.67;;;20.60;99.90;;;;;;4992344;28;20454;-68
2022/06/29 06:34:48;;;;;;;11.97;4.50;;;20.70;99.90;;;;;;4988088;28;20471;-67
2022/06/29 06:37:16;;;;;;;7.83;3.53;;;20.90;99.90;;;;;;4992472;28;20444;-67
2022/06/29 06:41:21;;;;;;;6.73;3.23;;;20.90;99.90;;;;;;4992686;28;20526;-67
2022/06/29 06:42:29;;;;;;;4.20;3.50;;;21.00;99.90;;;;;;4992609;28;20436;-69
2022/06/29 06:44:57;;;;;;;6.00;3.90;;;21.10;99.90;;;;;;4992352;28;20522;-68
2022/06/29 06:47:25;;;;;;;7.27;4.93;;;21.20;99.90;;;;;;4991972;28;20461;-68
2022/06/29 06:49:52;;;;;;;5.33;4.03;;;21.30;99.90;;;;;;4992755;28;20785;-68
2022/06/29 06:52:19;;;;;;;8.47;4.50;;;21.10;99.70;;;;;;4992381;28;20945;-67
2022/06/29 06:54:46;;;;;;;6.77;4.60;;;21.20;99.90;;;;;;4991048;28;21064;-69
2022/06/29 06:57:13;;;;;;;11.77;5.50;;;21.20;99.30;;;;;;4990747;28;20491;-68
2022/06/29 06:59:40;;;;;;;4.93;3.87;;;21.30;99.90;;;;;;4991535;28;20475;-67
2022/06/29 07:02:07;;;;;;;9.93;4.70;;;21.30;99.90;;;;;;4992200;28;20526;-68
2022/06/29 07:04:36;;;;;;;7.87;5.40;;;21.40;99.90;;;;;;4991780;28;20450;-68
2022/06/29 07:07:05;;;;;;;9.10;4.43;;;21.40;99.90;;;;;;4989943;28;20813;-68
2022/06/29 07:09:32;;;;;;;5.77;4.13;;;21.60;99.90;;;;;;4991686;28;20936;-68
2022/06/29 07:11:59;;;;;;;6.33;5.07;;;21.70;99.50;;;;;;4991949;28;20481;-68
2022/06/29 07:14:26;;;;;;;6.37;4.97;;;21.80;99.20;;;;;;4989945;28;20479;-68
2022/06/29 07:16:53;;;;;;;5.20;4.50;;;21.90;98.80;;;;;;4990718;28;20440;-69
2022/06/29 07:19:20;;;;;;;10.63;5.40;;;22.10;99.60;;;;;;4991072;28;20484;-67
2022/06/29 07:21:49;;;;;;;6.47;4.33;;;22.20;97.20;;;;;;4991709;28;20440;-68
2022/06/29 07:24:16;;;;;;;7.10;4.63;;;22.30;97.80;;;;;;4989573;28;20442;-68
2022/06/29 07:26:43;;;;;;;8.30;4.30;;;22.60;98.50;;;;;;4991361;28;20444;-68
2022/06/29 07:29:10;;;;;;;8.53;5.60;;;22.70;99.10;;;;;;4990109;28;21254;-68
2022/06/29 07:31:37;;;;;;;8.13;4.83;;;23.00;98.60;;;;;;4991596;28;20583;-68
2022/06/29 07:34:04;;;;;;;6.40;4.80;;;23.00;96.70;;;;;;4991118;28;20565;-68
2022/06/29 07:36:31;;;;;;;9.40;6.17;;;23.20;97.30;;;;;;4991745;28;20447;-68
2022/06/29 07:39:00;;;;;;;6.60;5.20;;;23.40;97.20;;;;;;4991387;28;20532;-68
2022/06/29 07:41:27;;;;;;;12.63;4.73;;;23.60;95.90;;;;;;4990892;28;20867;-69
2022/06/29 07:43:55;;;;;;;8.37;4.63;;;23.70;94.90;;;;;;4987675;28;20484;-67
2022/06/29 07:46:22;;;;;;;5.83;4.60;;;23.60;93.50;;;;;;4991528;28;20446;-68
2022/06/29 07:48:50;;;;;;;5.20;3.97;;;23.50;93.10;;;;;;4991401;28;20454;-68
2022/06/29 07:51:17;;;;;;;6.17;4.43;;;23.50;93.70;;;;;;4990289;28;20454;-68
2022/06/29 07:53:44;;;;;;;5.77;3.80;;;23.50;93.30;;;;;;4989895;28;21043;-68
2022/06/29 07:56:13;;;;;;;6.80;4.57;;;23.60;94.20;;;;;;4990402;28;20447;-68
2022/06/29 07:58:40;;;;;;;10.20;4.13;;;23.90;94.70;;;;;;4990975;28;20493;-68
2022/06/29 08:01:07;;;;;;;10.43;6.03;;;24.20;93.60;;;;;;4990879;28;20449;-68
2022/06/29 08:03:34;;;;;;;10.80;4.00;;;24.50;94.30;;;;;;4987141;28;20926;-67
2022/06/29 08:06:02;;;;;;;4.77;4.10;;;24.90;93.30;;;;;;4991443;28;20446;-68
2022/06/29 08:08:29;;;;;;;4.37;3.73;;;25.20;91.10;;;;;;4991170;28;20452;-68
2022/06/29 08:10:57;;;;;;;6.27;4.17;;;25.30;89.80;;;;;;4991541;28;20439;-70
2022/06/29 08:13:26;;;;;;;4.50;4.10;;;25.40;88.60;;;;;;4990899;28;20439;-68
2022/06/29 08:15:53;;;;;;;5.53;4.60;;;25.60;89.00;;;;;;4991442;28;20446;-67
2022/06/29 08:18:20;;;;;;;6.90;5.83;;;25.70;87.10;;;;;;4989794;28;20463;-69
2022/06/29 08:20:49;;;;;;;8.53;5.10;;;25.70;85.80;;;;;;4991026;28;20533;-67
2022/06/29 08:23:16;;;;;;;5.00;4.07;;;25.80;85.90;;;;;;4990877;28;20817;-67
2022/06/29 08:25:45;;;;;;;6.87;4.80;;;25.80;84.70;;;;;;4991000;28;20922;-68
2022/06/29 08:28:12;;;;;;;7.63;4.03;;;26.00;83.90;;;;;;4990679;28;20490;-68
2022/06/29 08:30:41;;;;;;;5.50;3.90;;;26.20;83.50;;;;;;4994652;28;21050;-68
2022/06/29 08:33:08;;;;;;;6.07;5.47;;;26.30;82.60;;;;;;4994609;28;20878;-68
2022/06/29 08:35:35;;;;;;;6.57;4.80;;;26.40;80.80;;;;;;4994660;28;20534;-68
2022/06/29 08:38:03;;;;;;;4.80;3.50;;;26.50;80.80;;;;;;4991406;28;20858;-68
2022/06/29 08:40:42;;;;;;;6.03;4.03;;;26.60;80.30;;;;;;4994888;28;20443;-67
2022/06/29 08:43:13;;;;;;;4.23;3.83;;;26.80;78.80;;;;;;4994058;28;20489;-69
2022/06/29 08:45:44;;;;;;;5.50;3.73;;;27.00;78.10;;;;;;4994929;28;20534;-68
2022/06/29 08:48:12;;;;;;;5.80;4.20;;;27.20;75.70;;;;;;4994187;28;20471;-68
2022/06/29 08:50:39;;;;;;;5.90;4.00;;;27.30;76.20;;;;;;4995052;28;20522;-67
2022/06/29 08:53:08;;;;;;;6.00;4.20;;;27.20;74.30;;;;;;4994156;28;20450;-70
2022/06/29 08:55:42;;;;;;;8.60;4.17;;;27.10;73.80;;;;;;4995023;28;20482;-68
2022/06/29 08:58:14;;;;;;;6.90;3.63;;;26.90;72.80;;;;;;4993976;28;20945;-68
2022/06/29 09:00:43;;;;;;;6.60;4.10;;;26.70;73.30;;;;;;4994053;28;20510;-68
2022/06/29 09:03:10;;;;;;;6.70;4.60;;;26.40;73.60;;;;;;4994568;28;20443;-68
2022/06/29 09:05:38;;;;;;;5.70;3.53;;;26.10;74.80;;;;;;4994116;28;20539;-68
2022/06/29 09:08:05;;;;;;;6.53;3.70;;;25.90;75.60;;;;;;4994196;28;20827;-67
2022/06/29 09:10:33;;;;;;;5.90;3.70;;;25.80;76.70;;;;;;4994608;28;20439;-68
2022/06/29 09:13:04;;;;;;;6.83;3.80;;;25.50;75.20;;;;;;4994198;28;20454;-68
2022/06/29 09:15:37;;;;;;;4.60;3.53;;;25.40;76.50;;;;;;4991165;28;20916;-68
2022/06/29 09:18:23;;;;;;;4.80;3.93;;;25.30;76.30;;;;;;4994389;28;20494;-68
2022/06/29 09:20:54;;;;;;;5.53;4.37;;;25.20;77.50;;;;;;4992264;28;20866;-67
2022/06/29 09:23:21;;;;;;;4.90;4.10;;;25.20;77.70;;;;;;4993857;28;20467;-69
2022/06/29 09:25:48;;;;;;;8.63;4.10;;;25.10;77.60;;;;;;4990114;28;20447;-67
2022/06/29 09:28:25;;;;;;;6.40;3.90;;;25.10;78.30;;;;;;4993726;28;20876;-68
2022/06/29 09:30:54;;;;;;;4.70;3.67;;;25.10;78.30;;;;;;4954831;29;20452;-69
2022/06/29 09:33:24;;;;;;;10.03;6.60;;;25.20;78.50;;;;;;4954972;29;20451;-69
2022/06/29 09:36:13;;;;;;;6.00;4.30;;;25.10;77.70;;;;;;4955431;29;21083;-68
2022/06/29 09:38:40;;;;;;;6.37;5.03;;;25.10;77.80;;;;;;4954589;29;21027;-67
2022/06/29 09:41:09;;;;;;;5.20;4.00;;;25.10;78.10;;;;;;4954060;28;20488;-68
2022/06/29 09:43:38;;;;;;;6.77;3.53;;;25.10;78.20;;;;;;4954526;29;20437;-68
2022/06/29 09:46:06;;;;;;;4.43;3.47;;;25.10;78.40;;;;;;4954913;28;20449;-67
2022/06/29 09:48:39;;;;;;;6.40;3.40;;;25.20;78.50;;;;;;4954414;29;20445;-68
2022/06/29 09:53:51;;;;;;;6.10;3.60;;;25.30;77.80;;;;;;4953512;29;20461;-68
2022/06/29 09:56:22;;;;;;;5.03;3.40;;;25.30;77.80;;;;;;4954616;29;20449;-68
2022/06/29 09:58:50;;;;;;;5.33;4.30;;;25.40;77.70;;;;;;4953499;29;20437;-67
2022/06/29 10:04:04;;;;;;;4.63;3.73;;;25.70;78.40;;;;;;4954482;29;20428;-69
2022/06/29 10:06:31;;;;;;;4.70;4.00;;;25.80;77.90;;;;;;4954813;28;20446;-68
2022/06/29 10:09:00;;;;;;;4.43;3.47;;;25.80;75.80;;;;;;4954641;29;20500;-68
2022/06/29 10:14:37;;;;;;;7.90;4.57;;;26.00;75.60;;;;;;4954271;29;20556;-68
2022/06/29 10:17:16;;;;;;;3.80;3.27;;;26.10;74.70;;;;;;4950559;29;20842;-70
2022/06/29 10:19:56;;;;;;;4.40;3.20;;;26.10;73.50;;;;;;4953392;29;20433;-70
2022/06/29 10:22:23;;;;;;;4.50;3.23;;;26.20;73.30;;;;;;4954234;29;20454;-68
2022/06/29 10:25:05;;;;;;;5.73;3.60;;;26.20;73.20;;;;;;4954495;28;20452;-68
2022/06/29 10:27:32;;;;;;;5.07;3.20;;;26.20;72.40;;;;;;4949822;28;20474;-68
2022/06/29 10:30:23;;;;;;;7.07;3.40;;;26.30;73.10;;;;;;4980774;28;20491;-68
2022/06/29 10:32:52;;;;;;;4.87;3.90;;;26.40;72.80;;;;;;4990956;28;20436;-68
2022/06/29 10:35:25;;;;;;;5.17;3.73;;;26.40;71.80;;;;;;4992452;28;20487;-67
2022/06/29 10:37:54;;;;;;;9.50;3.83;;;26.50;70.90;;;;;;4993064;28;20448;-68
2022/06/29 10:40:24;;;;;;;4.93;3.60;;;26.60;70.70;;;;;;4992399;28;20444;-68
2022/06/29 10:43:09;;;;;;;6.50;3.70;;;26.70;70.90;;;;;;4992664;28;20447;-69
2022/06/29 10:45:43;;;;;;;5.20;4.40;;;26.80;70.90;;;;;;4990768;28;20794;-68
2022/06/29 10:48:24;;;;;;;5.27;3.90;;;27.10;70.50;;;;;;4991475;28;20490;-68
2022/06/29 10:50:53;;;;;;;4.90;3.40;;;27.30;70.00;;;;;;4991914;28;20447;-68
2022/06/29 10:53:22;;;;;;;4.17;3.43;;;27.50;69.30;;;;;;4991744;28;20475;-68
2022/06/29 10:55:56;;;;;;;4.33;3.57;;;27.80;68.70;;;;;;4992340;28;20985;-68
2022/06/29 10:58:25;;;;;;;3.40;3.10;;;28.10;68.00;;;;;;4992276;28;20427;-68
2022/06/29 11:00:54;;;;;;;8.37;4.70;;;28.50;68.80;;;;;;4991272;28;20432;-69
2022/06/29 11:03:25;;;;;;;4.90;3.50;;;28.90;74.10;;;;;;4991927;28;20443;-68
2022/06/29 11:16:58;;;;;;;9.17;5.20;;;29.90;58.90;;;;;;4991818;28;20435;-65
2022/06/29 11:19:30;;;;;;;8.87;4.00;;;29.80;58.30;;;;;;4991424;28;20442;-65
2022/06/29 11:22:18;;;;;;;7.73;4.30;;;29.70;58.20;;;;;;4991823;28;20450;-65
2022/06/29 11:25:00;;;;;;;5.47;3.50;;;29.50;57.90;;;;;;4988414;28;20459;-65
2022/06/29 11:27:35;;;;;;;5.60;3.23;;;29.20;58.00;;;;;;4990612;28;20440;-66
2022/06/29 11:30:03;;;;;;;7.10;3.80;;;29.00;58.50;;;;;;4992082;28;20601;-65
2022/06/29 11:32:45;;;;;;;9.53;3.50;;;28.90;59.00;;;;;;4991243;28;21000;-65
2022/06/29 11:35:15;;;;;;;5.73;3.00;;;28.90;59.40;;;;;;4990183;28;20533;-65
2022/06/29 11:37:52;;;;;;;5.13;2.80;;;28.90;60.60;;;;;;4988219;28;20862;-65
2022/06/29 11:40:33;;;;;;;6.00;3.03;;;29.00;59.50;;;;;;4990808;28;20446;-65
2022/06/29 11:43:08;;;;;;;8.57;3.07;;;29.00;58.60;;;;;;4989562;28;20471;-66
2022/06/29 11:45:41;;;;;;;6.97;3.30;;;29.10;58.30;;;;;;4993991;28;20522;-65
2022/06/29 11:48:13;;;;;;;4.50;2.90;;;29.10;58.00;;;;;;4993599;28;20454;-68
2022/06/29 11:50:48;;;;;;;6.73;3.20;;;29.30;58.00;;;;;;4995072;28;20478;-67
2022/06/29 11:53:36;;;;;;;5.20;3.07;;;29.40;58.80;;;;;;4986011;28;20450;-68
2022/06/29 11:56:09;;;;;;;3.47;2.87;;;29.50;57.50;;;;;;4986183;28;20483;-68
2022/06/29 11:58:38;;;;;;;4.83;3.47;;;29.50;57.20;;;;;;4989011;28;20539;-67
2022/06/29 12:01:09;;;;;;;4.40;2.70;;;29.40;57.40;;;;;;4987505;28;20514;-68
2022/06/29 12:03:37;;;;;;;4.10;2.80;;;29.30;57.00;;;;;;4988651;28;20873;-68
2022/06/29 12:06:04;;;;;;;3.63;2.53;;;29.30;56.90;;;;;;4990556;28;20440;-68
2022/06/29 12:08:34;;;;;;;6.90;2.73;;;29.30;57.90;;;;;;4991620;28;20466;-67
2022/06/29 12:11:01;;;;;;;3.63;2.93;;;29.40;58.80;;;;;;4991280;28;20522;-67
2022/06/29 12:13:28;;;;;;;5.33;2.87;;;29.50;58.70;;;;;;4990864;28;20497;-68
2022/06/29 12:15:55;;;;;;;4.50;2.70;;;29.60;58.10;;;;;;4990811;28;20490;-68
2022/06/29 12:18:22;;;;;;;5.00;2.80;;;29.70;58.40;;;;;;4991524;28;20440;-68
2022/06/29 12:20:49;;;;;;;3.37;2.97;;;29.80;58.00;;;;;;4991143;28;20455;-67
2022/06/29 12:23:17;;;;;;;7.00;3.13;;;29.90;57.60;;;;;;4990825;28;20444;-68
2022/06/29 12:25:46;;;;;;;4.03;2.90;;;29.90;57.20;;;;;;4990677;28;20450;-67
2022/06/29 12:28:13;;;;;;;6.27;3.37;;;29.90;57.00;;;;;;4991212;28;20467;-68
2022/06/29 12:30:40;;;;;;;3.80;2.80;;;29.90;56.90;;;;;;4990646;28;20852;-68
2022/06/29 12:33:09;;;;;;;3.83;3.03;;;30.00;56.40;;;;;;4989939;28;20448;-69
2022/06/29 12:35:36;;;;;;;4.13;2.80;;;30.00;55.50;;;;;;4989468;28;20537;-68
2022/06/29 12:38:04;;;;;;;8.13;3.00;;;30.10;54.80;;;;;;4991407;28;20440;-67
2022/06/29 12:40:31;;;;;;;9.20;2.93;;;30.20;54.20;;;;;;4990724;28;20538;-68
2022/06/29 12:43:00;;;;;;;3.13;2.50;;;30.20;54.20;;;;;;4990827;28;20440;-70
2022/06/29 12:45:28;;;;;;;7.83;3.00;;;30.30;53.60;;;;;;4990943;28;20938;-68
2022/06/29 12:47:55;;;;;;;4.40;2.83;;;30.30;53.50;;;;;;4990908;28;20467;-68
2022/06/29 12:50:22;;;;;;;3.10;2.77;;;30.30;52.50;;;;;;4990970;28;20436;-68
2022/06/29 12:52:50;;;;;;;7.73;2.97;;;30.20;52.30;;;;;;4990700;28;20451;-67
2022/06/29 12:55:19;;;;;;;4.00;2.97;;;30.00;52.40;;;;;;4990746;28;20487;-68
2022/06/29 12:57:47;;;;;;;3.30;2.50;;;29.80;52.60;;;;;;4991126;28;20518;-68
2022/06/29 13:00:17;;;;;;;3.10;2.50;;;29.60;53.10;;;;;;4990558;28;20440;-71
2022/06/29 13:02:44;;;;;;;4.93;3.63;;;29.40;53.30;;;;;;4987127;28;20522;-68
2022/06/29 13:05:12;;;;;;;7.57;3.10;;;29.30;53.70;;;;;;4990562;28;20447;-68
2022/06/29 13:07:39;;;;;;;8.03;3.60;;;29.20;54.40;;;;;;4991157;28;20447;-68
2022/06/29 13:10:07;;;;;;;4.77;2.70;;;29.10;54.50;;;;;;4990296;28;20440;-68
2022/06/29 13:12:35;;;;;;;4.10;2.67;;;29.00;54.90;;;;;;4989738;28;21007;-69
2022/06/29 13:15:03;;;;;;;5.17;3.60;;;28.90;54.70;;;;;;4992793;28;20483;-67
2022/06/29 13:17:32;;;;;;;5.10;3.07;;;28.90;54.80;;;;;;4993173;28;20439;-69